createdAt,value
2023-04-08T00:01:00.068Z,5.41
2023-04-08T00:03:29.054Z,5.65
2023-04-08T00:05:57.439Z,5.41
2023-04-08T00:08:25.984Z,5.31
2023-04-08T00:10:54.188Z,5.67
2023-04-08T00:13:24.131Z,6.29
2023-04-08T00:15:52.287Z,5.71
2023-04-08T00:18:20.952Z,5.89
2023-04-08T00:20:49.118Z,5.61
2023-04-08T00:23:18.266Z,5.77
2023-04-08T00:25:46.681Z,6.16
2023-04-08T00:28:15.617Z,6.21
2023-04-08T00:30:45.173Z,6.26
2023-04-08T00:33:13.749Z,5.84
2023-04-08T00:35:42.103Z,5.60
2023-04-08T00:38:10.985Z,6.19
2023-04-08T00:40:39.121Z,6.07
2023-04-08T00:43:07.709Z,5.86
2023-04-08T00:45:35.983Z,5.96
2023-04-08T00:48:06.785Z,6.11
2023-04-08T00:50:35.087Z,5.61
2023-04-08T00:53:03.597Z,5.75
2023-04-08T00:55:31.976Z,6.21
2023-04-08T00:58:00.488Z,5.61
2023-04-08T01:00:29.681Z,5.82
2023-04-08T01:03:07.363Z,6.33
2023-04-08T01:05:41.663Z,5.97
2023-04-08T01:08:11.896Z,5.75
2023-04-08T01:10:43.017Z,5.55
2023-04-08T01:13:13.715Z,6.14
2023-04-08T01:15:44.139Z,5.74
2023-04-08T01:18:15.735Z,4.80
2023-04-08T01:20:44.473Z,5.49
2023-04-08T01:23:17.703Z,6.07
2023-04-08T01:25:49.245Z,5.63
2023-04-08T01:28:19.291Z,5.93
2023-04-08T01:30:48.067Z,4.83
2023-04-08T01:33:18.888Z,4.59
2023-04-08T01:35:47.637Z,4.30
2023-04-08T01:38:18.520Z,5.24
2023-04-08T01:40:49.720Z,4.52
2023-04-08T01:43:19.328Z,4.56
2023-04-08T01:45:48.770Z,4.88
2023-04-08T01:48:17.470Z,4.44
2023-04-08T01:50:46.547Z,4.81
2023-04-08T01:53:15.637Z,4.48
2023-04-08T01:55:44.383Z,5.12
2023-04-08T01:58:19.679Z,5.63
2023-04-08T02:00:48.146Z,4.96
2023-04-08T02:03:19.276Z,5.07
2023-04-08T02:05:47.687Z,4.48
2023-04-08T02:08:16.546Z,4.35
2023-04-08T02:10:44.674Z,4.95
2023-04-08T02:13:14.578Z,4.68
2023-04-08T02:15:48.585Z,5.03
2023-04-08T02:18:18.599Z,4.41
2023-04-08T02:20:55.667Z,4.83
2023-04-08T02:23:26.400Z,4.74
2023-04-08T02:25:55.855Z,4.61
2023-04-08T02:28:27.621Z,4.41
2023-04-08T02:30:56.173Z,4.05
2023-04-08T02:33:24.788Z,4.09
2023-04-08T02:35:56.210Z,4.45
2023-04-08T02:38:27.660Z,4.15
2023-04-08T02:40:55.920Z,4.41
2023-04-08T02:43:29.918Z,4.86
2023-04-08T02:45:58.392Z,3.98
2023-04-08T02:48:26.867Z,4.56
2023-04-08T02:50:55.168Z,4.59
2023-04-08T02:53:23.859Z,4.53
2023-04-08T02:55:52.315Z,3.87
2023-04-08T02:58:22.198Z,3.73
2023-04-08T03:00:51.877Z,4.51
2023-04-08T03:03:20.381Z,4.62
2023-04-08T03:05:48.628Z,4.22
2023-04-08T03:08:17.263Z,3.73
2023-04-08T03:10:45.751Z,3.76
2023-04-08T03:13:14.258Z,3.77
2023-04-08T03:15:42.571Z,4.16
2023-04-08T03:18:12.708Z,4.79
2023-04-08T03:20:40.828Z,4.47
2023-04-08T03:23:09.370Z,4.17
2023-04-08T03:25:37.530Z,4.62
2023-04-08T03:28:06.267Z,4.44
2023-04-08T03:30:34.861Z,4.02
2023-04-08T03:33:07.373Z,4.09
2023-04-08T03:35:37.784Z,3.98
2023-04-08T03:38:06.337Z,4.47
2023-04-08T03:40:34.744Z,4.08
2023-04-08T03:43:03.383Z,4.53
2023-04-08T03:45:31.705Z,4.31
2023-04-08T03:48:00.293Z,4.17
2023-04-08T03:50:28.522Z,4.50
2023-04-08T03:52:58.371Z,5.02
2023-04-08T03:55:26.666Z,4.25
2023-04-08T03:57:55.194Z,4.05
2023-04-08T04:00:23.420Z,3.84
2023-04-08T04:02:52.107Z,3.82
2023-04-08T04:05:20.642Z,3.62
2023-04-08T04:07:49.275Z,4.14
2023-04-08T04:10:18.995Z,4.76
2023-04-08T04:12:47.849Z,4.44
2023-04-08T04:15:16.219Z,4.33
2023-04-08T04:17:44.731Z,4.73
2023-04-08T04:20:13.762Z,4.51
2023-04-08T04:22:42.385Z,3.98
2023-04-08T04:25:11.261Z,4.10
2023-04-08T04:27:41.094Z,4.85
2023-04-08T04:30:10.653Z,5.06
2023-04-08T04:32:39.306Z,4.84
2023-04-08T04:35:07.943Z,4.87
2023-04-08T04:37:36.582Z,5.19
2023-04-08T04:40:05.195Z,5.40
2023-04-08T04:42:34.041Z,5.11
2023-04-08T04:45:04.349Z,5.25
2023-04-08T04:47:33.172Z,5.10
2023-04-08T04:50:01.486Z,4.88
2023-04-08T04:52:30.002Z,4.51
2023-04-08T04:54:58.951Z,5.35
2023-04-08T04:57:27.502Z,5.21
2023-04-08T04:59:55.728Z,5.45
2023-04-08T05:02:25.676Z,5.21
2023-04-08T05:04:55.824Z,5.24
2023-04-08T05:07:24.591Z,4.89
2023-04-08T05:09:52.776Z,4.74
2023-04-08T05:12:22.027Z,4.72
2023-04-08T05:14:50.397Z,4.14
2023-04-08T05:17:18.923Z,4.69
2023-04-08T05:19:48.552Z,5.18
2023-04-08T05:22:17.196Z,4.96
2023-04-08T05:24:45.498Z,4.98
2023-04-08T05:27:14.106Z,5.01
2023-04-08T05:29:42.577Z,5.21
2023-04-08T05:32:11.315Z,5.19
2023-04-08T05:34:39.556Z,5.06
2023-04-08T05:37:09.603Z,5.40
2023-04-08T05:39:37.834Z,5.37
2023-04-08T05:42:06.370Z,5.35
2023-04-08T05:44:34.686Z,5.19
2023-04-08T05:47:03.415Z,5.33
2023-04-08T05:49:31.573Z,5.55
2023-04-08T05:52:00.066Z,5.04
2023-04-08T05:54:29.775Z,5.78
2023-04-08T05:56:58.305Z,5.62
2023-04-08T05:59:26.502Z,5.73
2023-04-08T06:01:57.196Z,6.03
2023-04-08T06:04:25.855Z,5.69
2023-04-08T06:06:54.489Z,5.70
2023-04-08T06:09:22.721Z,5.56
2023-04-08T06:11:52.647Z,6.24
2023-04-08T06:14:21.610Z,6.20
2023-04-08T06:16:50.084Z,6.68
2023-04-08T06:19:18.442Z,7.01
2023-04-08T06:21:47.472Z,7.09
2023-04-08T06:24:15.689Z,7.91
2023-04-08T06:26:44.411Z,7.73
2023-04-08T06:29:14.143Z,7.85
2023-04-08T06:31:42.938Z,7.59
2023-04-08T06:34:11.388Z,7.45
2023-04-08T06:36:40.008Z,6.97
2023-04-08T06:39:08.486Z,6.63
2023-04-08T06:41:36.906Z,6.48
2023-04-08T06:44:05.382Z,6.75
2023-04-08T06:46:35.424Z,7.34
2023-04-08T06:49:04.676Z,6.51
2023-04-08T06:54:01.525Z,6.93
2023-04-08T06:56:30.170Z,8.36
2023-04-08T06:58:58.483Z,9.54
2023-04-08T07:01:26.994Z,9.85
2023-04-08T07:03:56.942Z,11.46
2023-04-08T07:06:25.614Z,11.61
2023-04-08T07:08:56.360Z,12.86
2023-04-08T07:11:25.045Z,11.80
2023-04-08T07:13:53.275Z,11.65
2023-04-08T07:16:21.822Z,11.36
2023-04-08T07:18:50.313Z,11.32
2023-04-08T07:21:20.523Z,11.58
2023-04-08T07:23:48.994Z,11.77
2023-04-08T07:26:17.681Z,12.69
2023-04-08T07:28:45.988Z,12.28
2023-04-08T07:31:18.199Z,12.59
2023-04-08T07:33:46.958Z,12.68
2023-04-08T07:36:18.433Z,13.64
2023-04-08T07:38:48.511Z,14.52
2023-04-08T07:41:17.416Z,14.69
2023-04-08T07:43:46.173Z,14.08
2023-04-08T07:46:15.064Z,13.96
2023-04-08T07:48:43.277Z,13.06
2023-04-08T07:51:11.944Z,13.64
2023-04-08T07:53:40.832Z,13.68
2023-04-08T07:56:14.955Z,15.16
2023-04-08T07:58:43.647Z,16.07
2023-04-08T08:01:20.169Z,16.86
2023-04-08T08:03:49.041Z,16.55
2023-04-08T08:06:17.935Z,17.73
2023-04-08T08:08:46.369Z,19.31
2023-04-08T08:11:16.354Z,20.70
2023-04-08T08:13:44.552Z,20.73
2023-04-08T08:16:13.189Z,20.87
2023-04-08T08:18:42.106Z,19.93
2023-04-08T08:21:10.918Z,19.76
2023-04-08T08:23:39.384Z,19.65
2023-04-08T08:26:10.190Z,19.78
2023-04-08T08:28:40.405Z,18.79
2023-04-08T08:31:09.037Z,16.53
2023-04-08T08:33:37.395Z,15.57
2023-04-08T08:36:07.158Z,16.34
2023-04-08T08:38:35.524Z,17.98
2023-04-08T08:41:04.855Z,20.45
2023-04-08T08:43:34.736Z,23.21
2023-04-08T08:46:04.700Z,24.13
2023-04-08T08:48:34.230Z,23.02
2023-04-08T08:51:02.844Z,22.82
2023-04-08T08:53:35.067Z,21.78
2023-04-08T08:56:17.994Z,21.34
2023-04-08T08:58:47.867Z,20.82
2023-04-08T09:01:38.261Z,21.54
2023-04-08T09:04:12.311Z,19.92
2023-04-08T09:06:41.466Z,19.10
2023-04-08T09:09:12.986Z,18.12
2023-04-08T09:11:43.128Z,18.77
2023-04-08T09:14:21.630Z,20.80
2023-04-08T09:16:52.157Z,22.10
2023-04-08T09:19:20.835Z,23.29
2023-04-08T09:22:06.604Z,24.77
2023-04-08T09:24:35.320Z,23.97
2023-04-08T09:27:04.353Z,23.12
2023-04-08T09:29:35.256Z,25.18
2023-04-08T09:32:07.842Z,27.57
2023-04-08T09:34:36.838Z,28.12
2023-04-08T09:37:05.403Z,28.59
2023-04-08T09:39:33.782Z,26.48
2023-04-08T09:42:03.586Z,26.21
2023-04-08T09:44:32.921Z,27.82
2023-04-08T09:47:06.440Z,30.47
2023-04-08T09:49:39.918Z,28.29
2023-04-08T09:52:09.724Z,27.03
2023-04-08T09:54:44.020Z,27.68
2023-04-08T09:57:19.065Z,27.16
2023-04-08T09:59:51.351Z,24.98
2023-04-08T10:02:26.140Z,23.67
2023-04-08T10:04:56.507Z,22.68
2023-04-08T10:07:25.124Z,22.08
2023-04-08T10:09:53.655Z,20.93
2023-04-08T10:12:22.366Z,18.93
2023-04-08T10:15:24.559Z,18.78
2023-04-08T10:17:53.501Z,17.92
2023-04-08T10:20:46.003Z,18.34
2023-04-08T10:23:15.475Z,17.50
2023-04-08T10:25:45.201Z,16.77
2023-04-08T10:28:27.379Z,17.91
2023-04-08T10:30:57.490Z,18.40
2023-04-08T10:33:34.764Z,18.46
2023-04-08T10:36:12.224Z,19.03
2023-04-08T10:38:42.448Z,19.99
2023-04-08T10:41:12.008Z,21.34
2023-04-08T10:43:40.753Z,23.23
2023-04-08T10:46:11.713Z,24.62
2023-04-08T10:48:40.516Z,23.67
2023-04-08T10:51:10.188Z,22.28
2023-04-08T10:53:40.433Z,22.14
2023-04-08T10:56:11.057Z,23.15
2023-04-08T10:58:49.191Z,24.16
2023-04-08T11:01:17.732Z,23.19
2023-04-08T11:03:46.401Z,22.44
2023-04-08T11:06:16.513Z,21.53
2023-04-08T11:08:45.454Z,19.01
2023-04-08T11:11:13.624Z,16.00
2023-04-08T11:13:52.054Z,15.96
2023-04-08T11:16:21.367Z,15.44
2023-04-08T11:18:50.405Z,15.33
2023-04-08T11:21:20.350Z,15.61
2023-04-08T11:23:51.975Z,15.66
2023-04-08T11:26:21.241Z,15.91
2023-04-08T11:28:52.048Z,15.31
2023-04-08T11:31:22.738Z,15.04
2023-04-08T11:33:54.979Z,14.99
2023-04-08T11:36:24.518Z,14.91
2023-04-08T11:38:55.469Z,14.11
2023-04-08T11:41:23.928Z,12.50
2023-04-08T11:43:56.519Z,13.90
2023-04-08T11:46:25.585Z,15.18
2023-04-08T11:49:04.840Z,14.79
2023-04-08T11:51:35.617Z,14.75
2023-04-08T11:54:06.660Z,14.92
2023-04-08T11:56:46.988Z,13.95
2023-04-08T11:59:15.653Z,12.80
2023-04-08T12:01:43.871Z,11.85
2023-04-08T12:04:12.661Z,11.87
2023-04-08T12:06:43.714Z,12.25
2023-04-08T12:09:12.899Z,10.91
2023-04-08T12:11:41.331Z,10.77
2023-04-08T12:14:09.862Z,11.09
2023-04-08T12:16:38.150Z,11.15
2023-04-08T12:19:07.252Z,11.48
2023-04-08T12:21:35.420Z,12.05
2023-04-08T12:24:05.428Z,12.14
2023-04-08T12:26:34.813Z,12.37
2023-04-08T12:29:03.300Z,11.92
2023-04-08T12:31:32.098Z,11.70
2023-04-08T12:34:00.654Z,12.30
2023-04-08T12:36:28.968Z,12.27
2023-04-08T12:38:57.691Z,11.30
2023-04-08T12:41:27.336Z,11.99
2023-04-08T12:43:55.959Z,12.05
2023-04-08T12:46:24.147Z,11.50
2023-04-08T12:49:03.465Z,11.66
2023-04-08T12:51:32.673Z,11.42
2023-04-08T12:54:02.095Z,11.71
2023-04-08T12:56:31.700Z,11.99
2023-04-08T12:59:01.192Z,11.82
2023-04-08T13:01:31.148Z,11.53
2023-04-08T13:04:00.241Z,11.21
2023-04-08T13:06:28.804Z,11.09
2023-04-08T13:08:57.453Z,10.95
2023-04-08T13:11:25.986Z,11.14
2023-04-08T13:13:56.038Z,10.81
2023-04-08T13:16:24.747Z,10.77
2023-04-08T13:18:53.644Z,10.81
2023-04-08T13:21:21.942Z,10.75
2023-04-08T13:23:50.345Z,11.20
2023-04-08T13:26:18.591Z,11.00
2023-04-08T13:28:56.612Z,10.88
2023-04-08T13:31:27.735Z,10.95
2023-04-08T13:33:58.188Z,10.10
2023-04-08T13:36:28.880Z,10.67
2023-04-08T13:38:57.849Z,11.31
2023-04-08T13:41:28.295Z,11.12
2023-04-08T13:43:57.584Z,11.54
2023-04-08T13:46:28.668Z,11.97
2023-04-08T13:48:57.656Z,11.42
2023-04-08T13:51:27.895Z,11.65
2023-04-08T13:53:57.223Z,11.20
2023-04-08T13:56:25.637Z,10.63
2023-04-08T13:58:57.357Z,10.52
2023-04-08T14:01:27.514Z,11.57
2023-04-08T14:03:56.486Z,10.70
2023-04-08T14:06:24.766Z,10.98
2023-04-08T14:08:53.421Z,10.56
2023-04-08T14:11:22.467Z,10.58
2023-04-08T14:13:50.951Z,9.65
2023-04-08T14:16:19.827Z,10.36
2023-04-08T14:18:50.045Z,9.90
2023-04-08T14:21:18.877Z,9.51
2023-04-08T14:23:48.264Z,9.78
2023-04-08T14:26:16.720Z,10.11
2023-04-08T14:28:45.216Z,10.46
2023-04-08T14:31:13.781Z,10.08
2023-04-08T14:33:42.420Z,10.26
2023-04-08T14:36:14.222Z,10.89
2023-04-08T14:38:42.810Z,10.78
2023-04-08T14:41:11.063Z,11.17
2023-04-08T14:43:39.592Z,11.36
2023-04-08T14:46:08.013Z,10.99
2023-04-08T14:48:36.639Z,10.62
2023-04-08T14:51:05.208Z,11.26
2023-04-08T14:53:35.576Z,12.14
2023-04-08T14:56:04.241Z,10.77
2023-04-08T14:58:33.148Z,11.23
2023-04-08T15:01:01.558Z,11.61
2023-04-08T15:03:30.562Z,11.82
2023-04-08T15:05:59.779Z,12.01
2023-04-08T15:08:28.445Z,11.42
2023-04-08T15:10:59.669Z,11.39
2023-04-08T15:13:28.294Z,10.86
2023-04-08T15:15:56.829Z,10.59
2023-04-08T15:18:25.568Z,10.79
2023-04-08T15:20:53.843Z,10.85
2023-04-08T15:23:23.382Z,10.96
2023-04-08T15:25:51.986Z,10.76
2023-04-08T15:28:21.975Z,10.87
2023-04-08T15:30:50.574Z,10.82
2023-04-08T15:33:19.359Z,10.76
2023-04-08T15:35:48.650Z,10.95
2023-04-08T15:38:17.619Z,10.67
2023-04-08T15:40:47.970Z,10.33
2023-04-08T15:43:16.876Z,10.62
2023-04-08T15:45:46.817Z,11.32
2023-04-08T15:48:15.512Z,10.62
2023-04-08T15:50:43.766Z,11.16
2023-04-08T15:53:12.339Z,11.06
2023-04-08T15:55:41.060Z,11.16
2023-04-08T15:58:09.804Z,11.03
2023-04-08T16:00:38.028Z,11.12
2023-04-08T16:03:11.977Z,11.78
2023-04-08T16:05:41.752Z,10.98
2023-04-08T16:08:10.401Z,11.38
2023-04-08T16:10:38.572Z,11.50
2023-04-08T16:13:07.729Z,11.71
2023-04-08T16:15:36.363Z,11.91
2023-04-08T16:18:06.476Z,11.82
2023-04-08T16:20:38.440Z,12.19
2023-04-08T16:23:06.983Z,11.67
2023-04-08T16:25:35.105Z,11.61
2023-04-08T16:28:03.905Z,11.59
2023-04-08T16:30:32.284Z,11.18
2023-04-08T16:33:01.052Z,11.10
2023-04-08T16:35:29.333Z,11.20
2023-04-08T16:37:59.707Z,11.75
2023-04-08T16:40:27.990Z,11.63
2023-04-08T16:42:56.945Z,11.78
2023-04-08T16:45:25.419Z,11.55
2023-04-08T16:47:54.225Z,11.60
2023-04-08T16:50:22.591Z,11.33
2023-04-08T16:52:51.190Z,11.51
2023-04-08T16:55:21.040Z,11.98
2023-04-08T16:57:49.773Z,11.54
2023-04-08T17:00:21.040Z,11.68
2023-04-08T17:02:50.353Z,11.04
2023-04-08T17:05:18.958Z,11.44
2023-04-08T17:07:47.587Z,11.19
2023-04-08T17:10:15.988Z,11.11
2023-04-08T17:12:46.186Z,11.17
2023-04-08T17:15:14.416Z,10.88
2023-04-08T17:17:43.126Z,10.96
2023-04-08T17:20:12.424Z,11.75
2023-04-08T17:22:41.126Z,11.67
2023-04-08T17:25:10.045Z,11.73
2023-04-08T17:27:38.575Z,11.25
2023-04-08T17:30:11.318Z,12.05
2023-04-08T17:32:40.289Z,11.43
2023-04-08T17:35:09.361Z,11.30
2023-04-08T17:37:38.017Z,11.11
2023-04-08T17:40:07.679Z,11.25
2023-04-08T17:42:36.436Z,11.16
2023-04-08T17:45:05.681Z,11.58
2023-04-08T17:47:35.723Z,11.81
2023-04-08T17:50:03.970Z,11.53
2023-04-08T17:52:32.536Z,11.45
2023-04-08T17:55:00.952Z,11.45
2023-04-08T17:57:29.704Z,11.13
2023-04-08T17:59:57.980Z,11.54
2023-04-08T18:02:27.682Z,11.26
2023-04-08T18:04:58.651Z,11.53
2023-04-08T18:07:27.509Z,11.12
2023-04-08T18:09:56.627Z,11.41
2023-04-08T18:12:26.316Z,11.20
2023-04-08T18:14:54.641Z,10.99
2023-04-08T18:17:23.209Z,10.96
2023-04-08T18:19:51.451Z,10.84
2023-04-08T18:22:22.609Z,11.08
2023-04-08T18:24:51.072Z,11.26
2023-04-08T18:27:19.660Z,11.01
2023-04-08T18:29:48.152Z,11.14
2023-04-08T18:32:16.804Z,11.27
2023-04-08T18:34:45.035Z,11.46
2023-04-08T18:37:17.036Z,11.43
2023-04-08T18:39:46.433Z,12.65
2023-04-08T18:42:15.071Z,11.83
2023-04-08T18:44:43.358Z,11.63
2023-04-08T18:47:12.146Z,11.71
2023-04-08T18:49:40.320Z,11.84
2023-04-08T18:52:09.437Z,11.92
2023-04-08T18:54:37.681Z,11.97
2023-04-08T18:57:08.043Z,12.27
2023-04-08T18:59:37.218Z,11.91
2023-04-08T19:02:05.943Z,11.70
2023-04-08T19:04:34.318Z,11.45
2023-04-08T19:07:03.104Z,11.58
2023-04-08T19:09:31.993Z,11.54
2023-04-08T19:12:00.686Z,11.63
2023-04-08T19:14:30.390Z,12.10
2023-04-08T19:16:58.851Z,11.84
2023-04-08T19:19:27.075Z,11.84
2023-04-08T19:21:55.571Z,11.90
2023-04-08T19:24:23.852Z,11.96
2023-04-08T19:26:53.202Z,12.05
2023-04-08T19:29:23.424Z,11.99
2023-04-08T19:31:53.440Z,12.43
2023-04-08T19:34:21.583Z,12.02
2023-04-08T19:36:50.050Z,12.20
2023-04-08T19:39:18.591Z,12.21
2023-04-08T19:41:47.168Z,12.32
2023-04-08T19:44:15.730Z,12.34
2023-04-08T19:46:44.542Z,12.36
2023-04-08T19:49:14.143Z,12.66
2023-04-08T19:51:42.641Z,12.33
2023-04-08T19:54:10.827Z,12.25
2023-04-08T19:56:39.608Z,12.32
2023-04-08T19:59:07.887Z,12.27
2023-04-08T20:01:36.527Z,12.35
2023-04-08T20:04:05.013Z,12.31
2023-04-08T20:06:35.431Z,12.60
2023-04-08T20:09:05.759Z,12.13
2023-04-08T20:11:34.572Z,12.17
2023-04-08T20:14:03.516Z,12.04
2023-04-08T20:16:32.134Z,12.03
2023-04-08T20:19:00.455Z,11.90
2023-04-08T20:21:28.987Z,11.85
2023-04-08T20:23:58.615Z,12.25
2023-04-08T20:26:27.199Z,12.02
2023-04-08T20:28:58.491Z,11.89
2023-04-08T20:31:28.114Z,11.91
2023-04-08T20:33:56.513Z,11.85
2023-04-08T20:36:25.946Z,11.87
2023-04-08T20:38:55.034Z,11.75
2023-04-08T20:41:26.057Z,12.22
2023-04-08T20:43:55.177Z,12.06
2023-04-08T20:46:24.610Z,11.96
2023-04-08T20:48:53.179Z,11.88
2023-04-08T20:51:22.170Z,11.85
2023-04-08T20:53:50.779Z,11.72
2023-04-08T20:56:19.270Z,11.69
2023-04-08T20:58:48.796Z,12.11
2023-04-08T21:01:17.310Z,11.63
2023-04-08T21:03:45.731Z,11.63
2023-04-08T21:06:18.153Z,11.98
2023-04-08T21:08:46.857Z,11.65
2023-04-08T21:11:15.750Z,11.55
2023-04-08T21:13:45.949Z,11.59
2023-04-08T21:16:17.428Z,11.88
2023-04-08T21:18:45.675Z,11.49
2023-04-08T21:21:14.260Z,11.46
2023-04-08T21:23:42.449Z,11.37
2023-04-08T21:26:14.671Z,11.91
2023-04-08T21:28:44.078Z,11.26
2023-04-08T21:31:13.244Z,11.41
2023-04-08T21:33:42.759Z,11.77
2023-04-08T21:36:11.334Z,11.43
2023-04-08T21:38:39.592Z,11.58
2023-04-08T21:41:08.112Z,11.52
2023-04-08T21:43:36.365Z,11.44
2023-04-08T21:46:05.172Z,11.27
2023-04-08T21:48:33.403Z,11.07
2023-04-08T21:51:03.371Z,11.44
2023-04-08T21:53:31.615Z,11.10
2023-04-08T21:56:00.156Z,11.17
2023-04-08T21:58:29.085Z,11.29
2023-04-08T22:00:57.687Z,11.37
2023-04-08T22:03:26.670Z,11.54
2023-04-08T22:05:55.377Z,11.51
2023-04-08T22:08:25.059Z,11.91
2023-04-08T22:10:54.189Z,11.61
2023-04-08T22:13:22.393Z,11.44
2023-04-08T22:15:51.056Z,11.46
2023-04-08T22:18:19.271Z,11.36
2023-04-08T22:20:48.026Z,11.44
2023-04-08T22:23:16.238Z,11.40
2023-04-08T22:25:49.498Z,11.81
2023-04-08T22:28:17.810Z,11.36
2023-04-08T22:30:46.418Z,11.40
2023-04-08T22:33:14.641Z,11.44
2023-04-08T22:35:43.520Z,11.49
2023-04-08T22:38:11.911Z,11.56
2023-04-08T22:40:40.446Z,11.50
2023-04-08T22:43:10.098Z,11.99
2023-04-08T22:45:38.869Z,11.75
2023-04-08T22:48:07.568Z,11.72
2023-04-08T22:50:36.240Z,11.70
2023-04-08T22:53:04.704Z,11.61
2023-04-08T22:55:33.447Z,11.64
2023-04-08T22:58:01.745Z,11.61
2023-04-08T23:00:31.931Z,12.09
2023-04-08T23:03:04.631Z,11.78
2023-04-08T23:05:33.300Z,11.78
2023-04-08T23:08:01.588Z,11.68
2023-04-08T23:10:30.096Z,11.70
2023-04-08T23:12:58.416Z,11.67
2023-04-08T23:15:27.015Z,11.75
2023-04-08T23:17:56.734Z,12.01
2023-04-08T23:20:25.146Z,11.58
2023-04-08T23:22:53.514Z,11.57
2023-04-08T23:25:21.947Z,11.50
2023-04-08T23:27:50.197Z,11.43
2023-04-08T23:30:18.767Z,11.51
2023-04-08T23:32:47.120Z,11.57
2023-04-08T23:35:17.377Z,11.92
2023-04-08T23:37:45.767Z,11.45
2023-04-08T23:40:14.281Z,11.42
2023-04-08T23:42:42.542Z,11.31
2023-04-08T23:45:11.849Z,11.55
2023-04-08T23:47:40.155Z,11.36
2023-04-08T23:50:10.136Z,11.64
2023-04-08T23:52:39.657Z,11.71
2023-04-08T23:55:08.612Z,11.39
2023-04-08T23:57:37.033Z,11.19
